»·PEaware :: SKW3856 KSLC-KDEN

SKW3856 :: KSLC-KDEN

FLIGHT INFORMATION

Flight Status: Arrived
Operator:
SkyWest Airlines
More flights by this operator :: More flights under this callsign
Pilot: Aundrey S. (17120)
Aircraft: CANADAIR CL-600 CRJ-200
(CRJ2)
More flights by this aircraft type
Origin: KSLC Salt Lake City Intl
United States
Destination: KDEN Denver Intl
United States
More flights between these airports :: More routes between these airports
Route: +RUGGD1 PERTY CHE KAILE2
File this flight plan on PilotEdge
Remarks:
Altitude:
(Current/Filed)
37,000ft
Speed:
(Current/Filed)
450kts
Departed: 05-Jun-19 08:12 AM
Arrived: 05-Jun-19 09:21 AM
Distance/Time
Traveled:
338nm/1:09
Distance/Time
To Go:
Arrived

Flight Plot

Page will automatically refresh every two minutes.

Flight plan parsing failed; only flown route is shown


Map Options




Map Legend


Flown Route
Filed Route
Departure Airport
Arrival Airport
Navaid (VOR, NDB)
Fix

Horizontal Profiles

Position Reports

Time Latitude Longitude Heading Altitude Ground
Speed
05-Jun-19 07:27 40.787114 -111.987312 206 4221ft 0kts
05-Jun-19 07:28 40.787114 -111.987312 206 4221ft 0kts
05-Jun-19 07:29 40.787114 -111.987312 206 4221ft 0kts
05-Jun-19 07:30 40.787114 -111.987312 206 4221ft 0kts
05-Jun-19 07:31 40.787114 -111.987312 206 4221ft 0kts
05-Jun-19 07:32 40.787114 -111.987312 206 4221ft 0kts
05-Jun-19 07:33 40.787114 -111.987312 206 4221ft 0kts
05-Jun-19 07:34 40.787114 -111.987312 206 4221ft 0kts
05-Jun-19 07:35 40.787114 -111.987312 206 4221ft 0kts
05-Jun-19 07:36 40.787114 -111.987312 206 4221ft 0kts
05-Jun-19 07:37 40.787114 -111.987312 206 4221ft 0kts
05-Jun-19 07:38 40.787114 -111.987312 206 4221ft 0kts
05-Jun-19 07:39 40.787114 -111.987312 206 4221ft 0kts
05-Jun-19 07:40 40.787114 -111.987312 206 4221ft 0kts
05-Jun-19 07:41 40.787114 -111.987312 206 4221ft 0kts
05-Jun-19 07:42 40.787114 -111.987312 206 4221ft 0kts
05-Jun-19 07:42 40.787114 -111.987312 206 4221ft 0kts
05-Jun-19 07:44 40.787114 -111.987312 206 4221ft 0kts
05-Jun-19 07:44 40.787114 -111.987312 206 4221ft 0kts
05-Jun-19 07:45 40.787114 -111.987312 206 4221ft 0kts
05-Jun-19 07:47 40.787114 -111.987312 206 4221ft 0kts
05-Jun-19 07:47 40.787114 -111.987312 206 4221ft 0kts
05-Jun-19 07:48 40.787114 -111.987312 206 4221ft 0kts
05-Jun-19 07:49 40.787114 -111.987312 206 4221ft 0kts
05-Jun-19 07:50 40.787114 -111.987312 206 4221ft 0kts
05-Jun-19 07:51 40.787114 -111.987312 206 4221ft 0kts
05-Jun-19 07:52 40.787114 -111.987312 206 4221ft 0kts
05-Jun-19 07:53 40.787114 -111.987312 206 4221ft 0kts
05-Jun-19 07:54 40.787114 -111.987312 206 4221ft 0kts
05-Jun-19 07:55 40.787111 -111.987314 206 4221ft 0kts
05-Jun-19 07:56 40.787473 -111.987095 204 4221ft 2kts
05-Jun-19 07:57 40.787751 -111.986927 204 4221ft 0kts
05-Jun-19 07:58 40.787751 -111.986927 204 4221ft 0kts
05-Jun-19 07:59 40.787751 -111.986927 204 4221ft 0kts
05-Jun-19 08:00 40.787751 -111.986927 204 4221ft 0kts
05-Jun-19 08:01 40.787751 -111.986927 204 4221ft 0kts
05-Jun-19 08:02 40.787751 -111.986927 204 4221ft 0kts
05-Jun-19 08:03 40.787751 -111.986927 204 4221ft 0kts
05-Jun-19 08:04 40.788052 -111.986491 25 4221ft 10kts
05-Jun-19 08:05 40.791587 -111.985099 85 4218ft 17kts
05-Jun-19 08:06 40.792242 -111.977500 36 4219ft 14kts
05-Jun-19 08:07 40.797765 -111.977996 354 4221ft 20kts
05-Jun-19 08:08 40.802419 -111.978544 355 4227ft 15kts
05-Jun-19 08:09 40.807238 -111.978817 41 4224ft 9kts
05-Jun-19 08:10 40.807433 -111.978353 76 4224ft 7kts
05-Jun-19 08:11 40.798959 -111.975948 174 4224ft 109kts
05-Jun-19 08:12 40.748405 -111.979385 208 5258ft 244kts
05-Jun-19 08:13 40.748212 -112.059683 306 9214ft 264kts
05-Jun-19 08:14 40.793105 -112.144297 306 10106ft 289kts
05-Jun-19 08:15 40.840983 -112.232353 306 10382ft 314kts
05-Jun-19 08:16 40.913977 -112.289963 9 14531ft 341kts
05-Jun-19 08:17 40.973596 -112.193988 68 18346ft 370kts
05-Jun-19 08:18 41.013224 -112.064439 49 21850ft 387kts
05-Jun-19 08:19 41.075006 -111.940354 62 24752ft 423kts
05-Jun-19 08:20 41.116370 -111.792793 88 27735ft 450kts
05-Jun-19 08:21 41.059729 -111.643911 128 30581ft 472kts
05-Jun-19 08:22 40.975095 -111.506227 128 33061ft 492kts
05-Jun-19 08:23 40.899765 -111.355994 101 35077ft 504kts
05-Jun-19 08:24 40.882453 -111.171394 97 36699ft 507kts
05-Jun-19 08:25 40.860455 -110.987455 97 37294ft 501kts
05-Jun-19 08:26 40.838346 -110.805490 97 37292ft 501kts
05-Jun-19 08:27 40.815967 -110.623832 97 37292ft 502kts
05-Jun-19 08:28 40.793313 -110.442386 97 37293ft 501kts
05-Jun-19 08:29 40.770261 -110.260100 98 37243ft 501kts
05-Jun-19 08:30 40.746915 -110.077919 98 37190ft 500kts
05-Jun-19 08:31 40.732405 -109.895933 93 37191ft 497kts
05-Jun-19 08:32 40.719425 -109.714017 93 37191ft 497kts
05-Jun-19 08:33 40.706226 -109.532985 93 37192ft 497kts
05-Jun-19 08:34 40.692711 -109.351676 93 37192ft 497kts
05-Jun-19 08:35 40.679580 -109.169588 93 37191ft 496kts
05-Jun-19 08:36 40.668327 -108.988702 93 37191ft 496kts
05-Jun-19 08:37 40.653230 -108.807840 94 37195ft 495kts
05-Jun-19 08:38 40.638320 -108.627767 94 37207ft 494kts
05-Jun-19 08:39 40.623146 -108.447829 94 37246ft 493kts
05-Jun-19 08:40 40.607911 -108.270448 95 37246ft 492kts
05-Jun-19 08:41 40.592209 -108.090946 94 37229ft 492kts
05-Jun-19 08:42 40.576359 -107.912828 95 37237ft 491kts
05-Jun-19 08:43 40.560177 -107.734444 95 37237ft 491kts
05-Jun-19 08:44 40.543768 -107.556360 95 37238ft 491kts
05-Jun-19 08:45 40.526999 -107.377712 95 37238ft 492kts
05-Jun-19 08:46 40.514552 -107.198360 93 37237ft 493kts
05-Jun-19 08:47 40.504997 -107.019710 93 35555ft 485kts
05-Jun-19 08:48 40.495279 -106.842799 93 33652ft 482kts
05-Jun-19 08:49 40.485321 -106.666097 93 31748ft 483kts
05-Jun-19 08:50 40.475071 -106.489529 93 29848ft 484kts
05-Jun-19 08:51 40.464531 -106.312626 94 28093ft 481kts
05-Jun-19 08:52 40.453879 -106.138451 94 26190ft 476kts
05-Jun-19 08:53 40.440306 -105.966358 100 24283ft 470kts
05-Jun-19 08:54 40.414301 -105.798110 101 22409ft 464kts
05-Jun-19 08:55 40.388226 -105.633527 101 20732ft 454kts
05-Jun-19 08:56 40.362365 -105.471763 101 19197ft 443kts
05-Jun-19 08:57 40.340364 -105.316765 100 17379ft 411kts
05-Jun-19 08:58 40.321343 -105.177308 100 15412ft 363kts
05-Jun-19 08:59 40.304475 -105.057025 100 14534ft 308kts
05-Jun-19 09:00 40.289268 -104.948511 100 13206ft 304kts
05-Jun-19 09:01 40.274153 -104.843007 100 12980ft 279kts
05-Jun-19 09:02 40.251449 -104.751274 138 12974ft 258kts
05-Jun-19 09:03 40.197517 -104.687433 137 12181ft 275kts
05-Jun-19 09:04 40.127964 -104.637980 188 10332ft 303kts
05-Jun-19 09:05 40.047993 -104.652308 187 8225ft 263kts
05-Jun-19 09:06 39.982704 -104.650656 175 6939ft 212kts
05-Jun-19 09:07 39.925813 -104.655122 187 6656ft 219kts
05-Jun-19 09:08 39.858105 -104.689021 212 7391ft 271kts
05-Jun-19 09:09 39.793556 -104.702996 171 8777ft 213kts
05-Jun-19 09:10 39.779648 -104.643444 67 10054ft 209kts
05-Jun-19 09:11 39.810162 -104.570061 27 10136ft 254kts
05-Jun-19 09:12 39.883117 -104.567093 357 10087ft 245kts
05-Jun-19 09:13 39.947988 -104.570338 357 10107ft 228kts
05-Jun-19 09:14 40.014464 -104.573650 357 10112ft 246kts
05-Jun-19 09:15 40.081314 -104.590546 311 9998ft 259kts
05-Jun-19 09:16 40.078823 -104.671851 216 8648ft 233kts
05-Jun-19 09:17 40.016992 -104.685227 180 7166ft 224kts
05-Jun-19 09:18 39.963792 -104.686030 180 6750ft 160kts
05-Jun-19 09:19 39.920334 -104.686497 179 5938ft 153kts
05-Jun-19 09:20 39.885495 -104.686959 180 5439ft 0kts
05-Jun-19 09:21 39.885496 -104.686959 180 5439ft 0kts

Navigation Log

Ident Type
Flight plan parsing failed, navigation log unavailable